sensor_id;sensor_type;location;lat;lon;timestamp;P1;durP1;ratioP1;P2;durP2;ratioP2
74267;SDS011;62638;51.362;12.472;2023-04-15T00:01:58;7.50;;;3.47;;
74267;SDS011;62638;51.362;12.472;2023-04-15T00:04:24;12.85;;;5.25;;
74267;SDS011;62638;51.362;12.472;2023-04-15T00:06:52;10.10;;;4.43;;
74267;SDS011;62638;51.362;12.472;2023-04-15T00:09:19;13.43;;;5.75;;
74267;SDS011;62638;51.362;12.472;2023-04-15T00:11:45;13.13;;;4.55;;
74267;SDS011;62638;51.362;12.472;2023-04-15T00:14:11;13.80;;;5.25;;
74267;SDS011;62638;51.362;12.472;2023-04-15T00:16:37;11.55;;;4.57;;
74267;SDS011;62638;51.362;12.472;2023-04-15T00:19:02;13.52;;;4.78;;
74267;SDS011;62638;51.362;12.472;2023-04-15T00:21:28;10.90;;;4.68;;
74267;SDS011;62638;51.362;12.472;2023-04-15T00:23:54;9.10;;;3.60;;
74267;SDS011;62638;51.362;12.472;2023-04-15T00:26:19;8.07;;;5.28;;
74267;SDS011;62638;51.362;12.472;2023-04-15T00:28:45;9.27;;;3.47;;
74267;SDS011;62638;51.362;12.472;2023-04-15T00:31:11;12.23;;;4.60;;
74267;SDS011;62638;51.362;12.472;2023-04-15T00:33:36;11.18;;;4.32;;
74267;SDS011;62638;51.362;12.472;2023-04-15T00:36:02;9.00;;;3.85;;
74267;SDS011;62638;51.362;12.472;2023-04-15T00:38:28;8.05;;;3.08;;
74267;SDS011;62638;51.362;12.472;2023-04-15T00:40:53;5.95;;;2.97;;
74267;SDS011;62638;51.362;12.472;2023-04-15T00:43:20;8.65;;;3.65;;
74267;SDS011;62638;51.362;12.472;2023-04-15T00:45:45;8.63;;;2.90;;
74267;SDS011;62638;51.362;12.472;2023-04-15T00:48:11;8.57;;;3.45;;
74267;SDS011;62638;51.362;12.472;2023-04-15T00:50:36;8.32;;;3.72;;
74267;SDS011;62638;51.362;12.472;2023-04-15T00:53:02;9.27;;;3.03;;
74267;SDS011;62638;51.362;12.472;2023-04-15T00:55:27;10.88;;;4.30;;
74267;SDS011;62638;51.362;12.472;2023-04-15T00:57:52;6.10;;;2.92;;
74267;SDS011;62638;51.362;12.472;2023-04-15T01:00:19;12.25;;;4.88;;
74267;SDS011;62638;51.362;12.472;2023-04-15T01:02:44;8.50;;;3.40;;
74267;SDS011;62638;51.362;12.472;2023-04-15T01:05:10;6.78;;;2.60;;
74267;SDS011;62638;51.362;12.472;2023-04-15T01:07:35;13.30;;;5.22;;
74267;SDS011;62638;51.362;12.472;2023-04-15T01:10:02;8.30;;;3.13;;
74267;SDS011;62638;51.362;12.472;2023-04-15T01:12:27;14.73;;;4.72;;
74267;SDS011;62638;51.362;12.472;2023-04-15T01:14:53;14.85;;;4.25;;
74267;SDS011;62638;51.362;12.472;2023-04-15T01:17:19;12.43;;;4.55;;
74267;SDS011;62638;51.362;12.472;2023-04-15T01:19:45;13.02;;;4.90;;
74267;SDS011;62638;51.362;12.472;2023-04-15T01:22:11;10.65;;;3.95;;
74267;SDS011;62638;51.362;12.472;2023-04-15T01:24:36;12.77;;;5.35;;
74267;SDS011;62638;51.362;12.472;2023-04-15T01:27:01;9.98;;;4.47;;
74267;SDS011;62638;51.362;12.472;2023-04-15T01:29:29;14.63;;;5.78;;
74267;SDS011;62638;51.362;12.472;2023-04-15T01:31:55;11.43;;;4.05;;
74267;SDS011;62638;51.362;12.472;2023-04-15T01:34:21;16.67;;;6.32;;
74267;SDS011;62638;51.362;12.472;2023-04-15T01:36:47;14.95;;;5.03;;
74267;SDS011;62638;51.362;12.472;2023-04-15T01:39:12;11.07;;;3.85;;
74267;SDS011;62638;51.362;12.472;2023-04-15T01:41:37;13.38;;;4.70;;
74267;SDS011;62638;51.362;12.472;2023-04-15T01:44:04;15.48;;;4.20;;
74267;SDS011;62638;51.362;12.472;2023-04-15T01:46:31;14.43;;;4.43;;
74267;SDS011;62638;51.362;12.472;2023-04-15T01:48:56;9.20;;;3.53;;
74267;SDS011;62638;51.362;12.472;2023-04-15T01:51:21;15.43;;;5.20;;
74267;SDS011;62638;51.362;12.472;2023-04-15T01:53:47;15.63;;;6.57;;
74267;SDS011;62638;51.362;12.472;2023-04-15T01:56:12;14.00;;;5.03;;
74267;SDS011;62638;51.362;12.472;2023-04-15T01:58:38;8.00;;;3.20;;
74267;SDS011;62638;51.362;12.472;2023-04-15T02:01:04;11.85;;;4.68;;
74267;SDS011;62638;51.362;12.472;2023-04-15T02:03:29;14.68;;;5.35;;
74267;SDS011;62638;51.362;12.472;2023-04-15T02:05:55;16.95;;;6.03;;
74267;SDS011;62638;51.362;12.472;2023-04-15T02:08:20;13.38;;;5.35;;
74267;SDS011;62638;51.362;12.472;2023-04-15T02:10:46;6.63;;;2.72;;
74267;SDS011;62638;51.362;12.472;2023-04-15T02:13:12;15.30;;;5.57;;
74267;SDS011;62638;51.362;12.472;2023-04-15T02:15:37;13.45;;;4.38;;
74267;SDS011;62638;51.362;12.472;2023-04-15T02:18:03;12.25;;;4.82;;
74267;SDS011;62638;51.362;12.472;2023-04-15T02:20:28;12.60;;;4.63;;
74267;SDS011;62638;51.362;12.472;2023-04-15T02:22:56;6.07;;;2.80;;
74267;SDS011;62638;51.362;12.472;2023-04-15T02:25:22;10.60;;;4.50;;
74267;SDS011;62638;51.362;12.472;2023-04-15T02:27:47;9.87;;;3.40;;
74267;SDS011;62638;51.362;12.472;2023-04-15T02:30:12;10.02;;;4.35;;
74267;SDS011;62638;51.362;12.472;2023-04-15T02:32:38;7.88;;;3.70;;
74267;SDS011;62638;51.362;12.472;2023-04-15T02:35:04;7.88;;;3.20;;
74267;SDS011;62638;51.362;12.472;2023-04-15T02:37:31;5.72;;;2.65;;
74267;SDS011;62638;51.362;12.472;2023-04-15T02:40:00;10.35;;;3.75;;
74267;SDS011;62638;51.362;12.472;2023-04-15T02:42:26;6.85;;;3.10;;
74267;SDS011;62638;51.362;12.472;2023-04-15T02:44:52;10.30;;;3.55;;
74267;SDS011;62638;51.362;12.472;2023-04-15T02:47:18;6.05;;;3.28;;
74267;SDS011;62638;51.362;12.472;2023-04-15T02:49:44;9.88;;;4.03;;
74267;SDS011;62638;51.362;12.472;2023-04-15T02:52:09;10.20;;;4.43;;
74267;SDS011;62638;51.362;12.472;2023-04-15T02:54:35;7.18;;;3.00;;
74267;SDS011;62638;51.362;12.472;2023-04-15T02:57:00;7.13;;;3.00;;
74267;SDS011;62638;51.362;12.472;2023-04-15T02:59:26;7.32;;;2.88;;
74267;SDS011;62638;51.362;12.472;2023-04-15T03:01:51;11.93;;;3.27;;
74267;SDS011;62638;51.362;12.472;2023-04-15T03:04:16;7.23;;;2.70;;
74267;SDS011;62638;51.362;12.472;2023-04-15T03:06:41;10.83;;;3.80;;
74267;SDS011;62638;51.362;12.472;2023-04-15T03:09:07;10.13;;;3.90;;
74267;SDS011;62638;51.362;12.472;2023-04-15T03:11:32;7.47;;;3.13;;
74267;SDS011;62638;51.362;12.472;2023-04-15T03:13:57;7.85;;;3.88;;
74267;SDS011;62638;51.362;12.472;2023-04-15T03:16:23;9.02;;;4.53;;
74267;SDS011;62638;51.362;12.472;2023-04-15T03:18:48;10.40;;;3.55;;
74267;SDS011;62638;51.362;12.472;2023-04-15T03:21:14;8.07;;;3.45;;
74267;SDS011;62638;51.362;12.472;2023-04-15T03:23:40;11.57;;;3.63;;
74267;SDS011;62638;51.362;12.472;2023-04-15T03:26:05;8.10;;;3.77;;
74267;SDS011;62638;51.362;12.472;2023-04-15T03:28:30;11.40;;;3.20;;
74267;SDS011;62638;51.362;12.472;2023-04-15T03:30:56;12.00;;;4.97;;
74267;SDS011;62638;51.362;12.472;2023-04-15T03:33:22;9.85;;;3.47;;
74267;SDS011;62638;51.362;12.472;2023-04-15T03:35:47;6.82;;;2.78;;
74267;SDS011;62638;51.362;12.472;2023-04-15T03:38:12;12.20;;;4.60;;
74267;SDS011;62638;51.362;12.472;2023-04-15T03:40:39;11.82;;;4.32;;
74267;SDS011;62638;51.362;12.472;2023-04-15T03:43:05;12.25;;;3.88;;
74267;SDS011;62638;51.362;12.472;2023-04-15T03:45:31;9.48;;;3.63;;
74267;SDS011;62638;51.362;12.472;2023-04-15T03:47:56;7.53;;;3.60;;
74267;SDS011;62638;51.362;12.472;2023-04-15T03:50:22;11.80;;;4.57;;
74267;SDS011;62638;51.362;12.472;2023-04-15T03:52:47;12.97;;;3.90;;
74267;SDS011;62638;51.362;12.472;2023-04-15T03:55:12;10.57;;;4.23;;
74267;SDS011;62638;51.362;12.472;2023-04-15T03:57:38;8.25;;;3.33;;
74267;SDS011;62638;51.362;12.472;2023-04-15T04:00:04;9.02;;;4.03;;
74267;SDS011;62638;51.362;12.472;2023-04-15T04:02:30;12.48;;;4.32;;
74267;SDS011;62638;51.362;12.472;2023-04-15T04:04:56;9.53;;;3.83;;
74267;SDS011;62638;51.362;12.472;2023-04-15T04:07:22;11.33;;;3.73;;
74267;SDS011;62638;51.362;12.472;2023-04-15T04:09:47;9.95;;;3.78;;
74267;SDS011;62638;51.362;12.472;2023-04-15T04:12:13;9.70;;;4.05;;
74267;SDS011;62638;51.362;12.472;2023-04-15T04:14:38;11.00;;;5.07;;
74267;SDS011;62638;51.362;12.472;2023-04-15T04:17:03;6.30;;;2.80;;
74267;SDS011;62638;51.362;12.472;2023-04-15T04:19:28;9.23;;;3.97;;
74267;SDS011;62638;51.362;12.472;2023-04-15T04:21:54;6.40;;;2.53;;
74267;SDS011;62638;51.362;12.472;2023-04-15T04:24:19;9.55;;;4.43;;
74267;SDS011;62638;51.362;12.472;2023-04-15T04:26:45;12.85;;;4.15;;
74267;SDS011;62638;51.362;12.472;2023-04-15T04:29:10;5.80;;;3.17;;
74267;SDS011;62638;51.362;12.472;2023-04-15T04:31:35;9.57;;;3.37;;
74267;SDS011;62638;51.362;12.472;2023-04-15T04:34:01;8.87;;;2.50;;
74267;SDS011;62638;51.362;12.472;2023-04-15T04:36:26;12.70;;;3.53;;
74267;SDS011;62638;51.362;12.472;2023-04-15T04:38:51;8.93;;;3.87;;
74267;SDS011;62638;51.362;12.472;2023-04-15T04:41:16;8.77;;;2.97;;
74267;SDS011;62638;51.362;12.472;2023-04-15T04:43:42;8.27;;;2.83;;
74267;SDS011;62638;51.362;12.472;2023-04-15T04:46:07;6.85;;;2.47;;
74267;SDS011;62638;51.362;12.472;2023-04-15T04:48:33;8.02;;;3.45;;
74267;SDS011;62638;51.362;12.472;2023-04-15T04:50:58;11.53;;;3.80;;
74267;SDS011;62638;51.362;12.472;2023-04-15T04:53:23;7.10;;;3.43;;
74267;SDS011;62638;51.362;12.472;2023-04-15T04:55:48;13.30;;;3.23;;
74267;SDS011;62638;51.362;12.472;2023-04-15T04:58:14;11.33;;;4.13;;
74267;SDS011;62638;51.362;12.472;2023-04-15T05:00:39;9.40;;;3.85;;
74267;SDS011;62638;51.362;12.472;2023-04-15T05:03:06;11.55;;;4.50;;
74267;SDS011;62638;51.362;12.472;2023-04-15T05:05:31;11.17;;;3.97;;
74267;SDS011;62638;51.362;12.472;2023-04-15T05:07:56;9.87;;;3.43;;
74267;SDS011;62638;51.362;12.472;2023-04-15T05:10:21;8.00;;;3.97;;
74267;SDS011;62638;51.362;12.472;2023-04-15T05:12:47;9.17;;;3.77;;
74267;SDS011;62638;51.362;12.472;2023-04-15T05:15:12;8.67;;;2.70;;
74267;SDS011;62638;51.362;12.472;2023-04-15T05:17:37;12.13;;;4.90;;
74267;SDS011;62638;51.362;12.472;2023-04-15T05:20:03;10.48;;;3.45;;
74267;SDS011;62638;51.362;12.472;2023-04-15T05:22:28;7.63;;;2.65;;
74267;SDS011;62638;51.362;12.472;2023-04-15T05:24:53;9.47;;;3.60;;
74267;SDS011;62638;51.362;12.472;2023-04-15T05:27:19;10.27;;;3.00;;
74267;SDS011;62638;51.362;12.472;2023-04-15T05:29:44;10.18;;;4.13;;
74267;SDS011;62638;51.362;12.472;2023-04-15T05:32:09;12.68;;;4.65;;
74267;SDS011;62638;51.362;12.472;2023-04-15T05:34:35;11.57;;;3.67;;
74267;SDS011;62638;51.362;12.472;2023-04-15T05:37:01;13.43;;;4.53;;
74267;SDS011;62638;51.362;12.472;2023-04-15T05:39:26;11.30;;;3.67;;
74267;SDS011;62638;51.362;12.472;2023-04-15T05:41:51;14.70;;;4.10;;
74267;SDS011;62638;51.362;12.472;2023-04-15T05:44:17;8.15;;;3.67;;
74267;SDS011;62638;51.362;12.472;2023-04-15T05:46:42;11.03;;;4.33;;
74267;SDS011;62638;51.362;12.472;2023-04-15T05:49:07;13.17;;;3.87;;
74267;SDS011;62638;51.362;12.472;2023-04-15T05:51:33;14.70;;;4.85;;
74267;SDS011;62638;51.362;12.472;2023-04-15T05:53:58;10.90;;;3.75;;
74267;SDS011;62638;51.362;12.472;2023-04-15T05:56:23;10.87;;;4.47;;
74267;SDS011;62638;51.362;12.472;2023-04-15T05:58:50;10.75;;;3.72;;
74267;SDS011;62638;51.362;12.472;2023-04-15T06:01:16;10.67;;;3.90;;
74267;SDS011;62638;51.362;12.472;2023-04-15T06:03:41;15.63;;;4.43;;
74267;SDS011;62638;51.362;12.472;2023-04-15T06:06:06;9.48;;;3.33;;
74267;SDS011;62638;51.362;12.472;2023-04-15T06:08:32;15.68;;;4.70;;
74267;SDS011;62638;51.362;12.472;2023-04-15T06:10:57;10.90;;;2.97;;
74267;SDS011;62638;51.362;12.472;2023-04-15T06:13:23;11.35;;;3.88;;
74267;SDS011;62638;51.362;12.472;2023-04-15T06:15:48;10.27;;;3.73;;
74267;SDS011;62638;51.362;12.472;2023-04-15T06:18:13;14.87;;;5.47;;
74267;SDS011;62638;51.362;12.472;2023-04-15T06:20:38;10.70;;;4.23;;
74267;SDS011;62638;51.362;12.472;2023-04-15T06:23:04;13.18;;;5.60;;
74267;SDS011;62638;51.362;12.472;2023-04-15T06:25:29;16.30;;;4.78;;
74267;SDS011;62638;51.362;12.472;2023-04-15T06:27:55;13.57;;;3.70;;
74267;SDS011;62638;51.362;12.472;2023-04-15T06:30:20;10.50;;;4.37;;
74267;SDS011;62638;51.362;12.472;2023-04-15T06:32:45;21.37;;;5.67;;
74267;SDS011;62638;51.362;12.472;2023-04-15T06:35:11;10.00;;;4.00;;
74267;SDS011;62638;51.362;12.472;2023-04-15T06:37:36;8.77;;;3.13;;
74267;SDS011;62638;51.362;12.472;2023-04-15T06:40:01;13.87;;;5.10;;
74267;SDS011;62638;51.362;12.472;2023-04-15T06:42:29;11.70;;;4.35;;
74267;SDS011;62638;51.362;12.472;2023-04-15T06:44:54;12.68;;;4.50;;
74267;SDS011;62638;51.362;12.472;2023-04-15T06:47:20;14.95;;;5.25;;
74267;SDS011;62638;51.362;12.472;2023-04-15T06:49:45;9.85;;;4.65;;
74267;SDS011;62638;51.362;12.472;2023-04-15T06:52:10;14.67;;;6.13;;
74267;SDS011;62638;51.362;12.472;2023-04-15T06:54:36;7.55;;;3.28;;
74267;SDS011;62638;51.362;12.472;2023-04-15T06:57:01;10.57;;;4.27;;
74267;SDS011;62638;51.362;12.472;2023-04-15T06:59:27;11.00;;;3.28;;
74267;SDS011;62638;51.362;12.472;2023-04-15T07:01:52;16.38;;;4.75;;
74267;SDS011;62638;51.362;12.472;2023-04-15T07:04:18;17.65;;;5.90;;
74267;SDS011;62638;51.362;12.472;2023-04-15T07:06:44;13.65;;;5.38;;
74267;SDS011;62638;51.362;12.472;2023-04-15T07:09:10;11.35;;;4.35;;
74267;SDS011;62638;51.362;12.472;2023-04-15T07:11:35;6.97;;;3.80;;
74267;SDS011;62638;51.362;12.472;2023-04-15T07:14:00;14.57;;;4.88;;
74267;SDS011;62638;51.362;12.472;2023-04-15T07:16:26;11.63;;;4.90;;
74267;SDS011;62638;51.362;12.472;2023-04-15T07:18:51;18.85;;;5.95;;
74267;SDS011;62638;51.362;12.472;2023-04-15T07:21:16;10.23;;;4.13;;
74267;SDS011;62638;51.362;12.472;2023-04-15T07:23:42;13.05;;;5.20;;
74267;SDS011;62638;51.362;12.472;2023-04-15T07:26:08;14.32;;;4.40;;
74267;SDS011;62638;51.362;12.472;2023-04-15T07:28:33;14.88;;;5.72;;
74267;SDS011;62638;51.362;12.472;2023-04-15T07:30:59;9.82;;;4.05;;
74267;SDS011;62638;51.362;12.472;2023-04-15T07:33:24;8.93;;;3.47;;
74267;SDS011;62638;51.362;12.472;2023-04-15T07:35:50;9.43;;;3.63;;
74267;SDS011;62638;51.362;12.472;2023-04-15T07:38:15;15.77;;;4.13;;
74267;SDS011;62638;51.362;12.472;2023-04-15T07:40:40;12.73;;;5.32;;
74267;SDS011;62638;51.362;12.472;2023-04-15T07:43:06;11.93;;;4.25;;
74267;SDS011;62638;51.362;12.472;2023-04-15T07:45:31;10.93;;;4.15;;
74267;SDS011;62638;51.362;12.472;2023-04-15T07:47:57;14.30;;;5.27;;
74267;SDS011;62638;51.362;12.472;2023-04-15T07:50:22;11.05;;;4.50;;
74267;SDS011;62638;51.362;12.472;2023-04-15T07:52:48;16.63;;;5.13;;
74267;SDS011;62638;51.362;12.472;2023-04-15T07:55:15;10.93;;;4.28;;
74267;SDS011;62638;51.362;12.472;2023-04-15T07:57:43;18.42;;;6.63;;
74267;SDS011;62638;51.362;12.472;2023-04-15T08:00:08;17.58;;;5.00;;
74267;SDS011;62638;51.362;12.472;2023-04-15T08:02:34;18.23;;;5.25;;
74267;SDS011;62638;51.362;12.472;2023-04-15T08:04:59;14.83;;;5.50;;
74267;SDS011;62638;51.362;12.472;2023-04-15T08:07:27;16.55;;;6.53;;
74267;SDS011;62638;51.362;12.472;2023-04-15T08:09:52;15.20;;;5.27;;
74267;SDS011;62638;51.362;12.472;2023-04-15T08:12:17;12.10;;;4.40;;
74267;SDS011;62638;51.362;12.472;2023-04-15T08:14:42;20.05;;;5.30;;
74267;SDS011;62638;51.362;12.472;2023-04-15T08:17:08;14.30;;;4.43;;
74267;SDS011;62638;51.362;12.472;2023-04-15T08:19:33;19.45;;;6.63;;
74267;SDS011;62638;51.362;12.472;2023-04-15T08:21:59;11.27;;;4.82;;
74267;SDS011;62638;51.362;12.472;2023-04-15T08:24:25;15.93;;;5.32;;
74267;SDS011;62638;51.362;12.472;2023-04-15T08:26:51;15.38;;;5.32;;
74267;SDS011;62638;51.362;12.472;2023-04-15T08:29:16;16.70;;;6.57;;
74267;SDS011;62638;51.362;12.472;2023-04-15T08:31:42;14.43;;;5.45;;
74267;SDS011;62638;51.362;12.472;2023-04-15T08:34:08;13.63;;;4.72;;
74267;SDS011;62638;51.362;12.472;2023-04-15T08:36:35;15.38;;;5.55;;
74267;SDS011;62638;51.362;12.472;2023-04-15T08:39:00;24.88;;;7.72;;
74267;SDS011;62638;51.362;12.472;2023-04-15T08:41:26;18.08;;;5.72;;
74267;SDS011;62638;51.362;12.472;2023-04-15T08:44:03;16.75;;;5.80;;
74267;SDS011;62638;51.362;12.472;2023-04-15T08:46:30;16.73;;;5.25;;
74267;SDS011;62638;51.362;12.472;2023-04-15T08:48:56;26.13;;;6.95;;
74267;SDS011;62638;51.362;12.472;2023-04-15T08:51:22;16.95;;;6.90;;
74267;SDS011;62638;51.362;12.472;2023-04-15T08:53:47;20.67;;;6.88;;
74267;SDS011;62638;51.362;12.472;2023-04-15T08:56:14;16.75;;;6.55;;
74267;SDS011;62638;51.362;12.472;2023-04-15T08:58:43;16.23;;;5.90;;
74267;SDS011;62638;51.362;12.472;2023-04-15T09:01:09;20.20;;;6.72;;
74267;SDS011;62638;51.362;12.472;2023-04-15T09:03:36;22.38;;;7.38;;
74267;SDS011;62638;51.362;12.472;2023-04-15T09:06:03;21.10;;;7.45;;
74267;SDS011;62638;51.362;12.472;2023-04-15T09:08:29;24.98;;;9.68;;
74267;SDS011;62638;51.362;12.472;2023-04-15T09:10:55;20.40;;;7.10;;
74267;SDS011;62638;51.362;12.472;2023-04-15T09:13:20;18.03;;;6.70;;
74267;SDS011;62638;51.362;12.472;2023-04-15T09:15:45;17.73;;;7.32;;
74267;SDS011;62638;51.362;12.472;2023-04-15T09:18:11;23.92;;;9.38;;
74267;SDS011;62638;51.362;12.472;2023-04-15T09:20:40;25.38;;;7.82;;
74267;SDS011;62638;51.362;12.472;2023-04-15T09:23:13;25.05;;;8.45;;
74267;SDS011;62638;51.362;12.472;2023-04-15T09:25:39;23.40;;;7.95;;
74267;SDS011;62638;51.362;12.472;2023-04-15T09:28:09;26.25;;;9.48;;
74267;SDS011;62638;51.362;12.472;2023-04-15T09:30:35;18.05;;;7.07;;
74267;SDS011;62638;51.362;12.472;2023-04-15T09:33:01;23.83;;;9.00;;
74267;SDS011;62638;51.362;12.472;2023-04-15T09:35:31;22.00;;;7.50;;
74267;SDS011;62638;51.362;12.472;2023-04-15T09:38:04;23.98;;;8.30;;
74267;SDS011;62638;51.362;12.472;2023-04-15T09:40:35;24.45;;;8.13;;
74267;SDS011;62638;51.362;12.472;2023-04-15T09:43:04;23.70;;;9.15;;
74267;SDS011;62638;51.362;12.472;2023-04-15T09:45:31;27.75;;;8.65;;
74267;SDS011;62638;51.362;12.472;2023-04-15T09:47:58;27.35;;;8.60;;
74267;SDS011;62638;51.362;12.472;2023-04-15T09:50:39;27.02;;;9.13;;
74267;SDS011;62638;51.362;12.472;2023-04-15T09:53:10;34.65;;;10.73;;
74267;SDS011;62638;51.362;12.472;2023-04-15T09:55:39;27.45;;;9.48;;
74267;SDS011;62638;51.362;12.472;2023-04-15T09:58:09;29.13;;;10.10;;
74267;SDS011;62638;51.362;12.472;2023-04-15T10:00:42;32.03;;;11.15;;
74267;SDS011;62638;51.362;12.472;2023-04-15T10:03:07;25.25;;;8.45;;
74267;SDS011;62638;51.362;12.472;2023-04-15T10:05:33;22.00;;;9.05;;
74267;SDS011;62638;51.362;12.472;2023-04-15T10:07:59;30.40;;;11.00;;
74267;SDS011;62638;51.362;12.472;2023-04-15T10:10:25;31.48;;;10.88;;
74267;SDS011;62638;51.362;12.472;2023-04-15T10:12:51;35.65;;;11.05;;
74267;SDS011;62638;51.362;12.472;2023-04-15T10:15:17;26.92;;;10.43;;
74267;SDS011;62638;51.362;12.472;2023-04-15T10:17:43;26.73;;;9.45;;
74267;SDS011;62638;51.362;12.472;2023-04-15T10:20:09;28.80;;;10.40;;
74267;SDS011;62638;51.362;12.472;2023-04-15T10:22:36;35.85;;;11.32;;
74267;SDS011;62638;51.362;12.472;2023-04-15T10:25:02;20.90;;;8.27;;
74267;SDS011;62638;51.362;12.472;2023-04-15T10:27:29;34.33;;;11.20;;
74267;SDS011;62638;51.362;12.472;2023-04-15T10:29:55;28.75;;;11.57;;
74267;SDS011;62638;51.362;12.472;2023-04-15T10:32:21;27.88;;;10.70;;
74267;SDS011;62638;51.362;12.472;2023-04-15T10:34:49;29.38;;;11.68;;
74267;SDS011;62638;51.362;12.472;2023-04-15T10:37:20;24.00;;;9.77;;
74267;SDS011;62638;51.362;12.472;2023-04-15T10:39:47;26.30;;;11.00;;
74267;SDS011;62638;51.362;12.472;2023-04-15T10:42:16;34.55;;;12.88;;
74267;SDS011;62638;51.362;12.472;2023-04-15T10:47:10;24.63;;;9.43;;
74267;SDS011;62638;51.362;12.472;2023-04-15T10:49:58;20.77;;;10.60;;
74267;SDS011;62638;51.362;12.472;2023-04-15T10:52:26;30.80;;;10.93;;
74267;SDS011;62638;51.362;12.472;2023-04-15T10:57:42;23.05;;;9.45;;
74267;SDS011;62638;51.362;12.472;2023-04-15T11:00:09;26.45;;;8.90;;
74267;SDS011;62638;51.362;12.472;2023-04-15T11:02:37;31.65;;;10.73;;
74267;SDS011;62638;51.362;12.472;2023-04-15T11:05:03;17.42;;;9.10;;
74267;SDS011;62638;51.362;12.472;2023-04-15T11:07:36;23.45;;;9.05;;
74267;SDS011;62638;51.362;12.472;2023-04-15T11:10:03;27.23;;;10.60;;
74267;SDS011;62638;51.362;12.472;2023-04-15T11:12:37;23.17;;;10.15;;
74267;SDS011;62638;51.362;12.472;2023-04-15T11:18:10;21.58;;;8.73;;
74267;SDS011;62638;51.362;12.472;2023-04-15T11:20:50;12.20;;;7.22;;
74267;SDS011;62638;51.362;12.472;2023-04-15T11:23:19;21.70;;;9.43;;
74267;SDS011;62638;51.362;12.472;2023-04-15T11:25:55;17.00;;;8.07;;
74267;SDS011;62638;51.362;12.472;2023-04-15T11:28:23;17.30;;;8.63;;
74267;SDS011;62638;51.362;12.472;2023-04-15T11:30:50;14.98;;;7.07;;
74267;SDS011;62638;51.362;12.472;2023-04-15T11:33:15;15.73;;;7.27;;
74267;SDS011;62638;51.362;12.472;2023-04-15T11:35:40;19.43;;;8.20;;
74267;SDS011;62638;51.362;12.472;2023-04-15T11:38:10;17.33;;;7.07;;
74267;SDS011;62638;51.362;12.472;2023-04-15T11:40:37;17.30;;;7.95;;
74267;SDS011;62638;51.362;12.472;2023-04-15T11:43:10;19.15;;;9.18;;
74267;SDS011;62638;51.362;12.472;2023-04-15T11:45:37;15.98;;;6.82;;
74267;SDS011;62638;51.362;12.472;2023-04-15T11:48:12;11.82;;;6.53;;
74267;SDS011;62638;51.362;12.472;2023-04-15T11:50:37;15.48;;;7.18;;
74267;SDS011;62638;51.362;12.472;2023-04-15T11:53:07;8.38;;;5.20;;
74267;SDS011;62638;51.362;12.472;2023-04-15T11:55:44;13.77;;;6.15;;
74267;SDS011;62638;51.362;12.472;2023-04-15T11:58:14;16.17;;;7.63;;
74267;SDS011;62638;51.362;12.472;2023-04-15T12:00:51;12.15;;;5.65;;
74267;SDS011;62638;51.362;12.472;2023-04-15T12:03:21;13.23;;;5.72;;
74267;SDS011;62638;51.362;12.472;2023-04-15T12:09:15;12.43;;;5.95;;
74267;SDS011;62638;51.362;12.472;2023-04-15T12:13:52;4.70;;;3.43;;
74267;SDS011;62638;51.362;12.472;2023-04-15T12:16:19;10.70;;;4.90;;
74267;SDS011;62638;51.362;12.472;2023-04-15T12:18:45;12.95;;;5.63;;
74267;SDS011;62638;51.362;12.472;2023-04-15T12:21:12;10.68;;;5.45;;
74267;SDS011;62638;51.362;12.472;2023-04-15T12:23:39;13.77;;;5.80;;
74267;SDS011;62638;51.362;12.472;2023-04-15T12:26:12;12.32;;;5.30;;
74267;SDS011;62638;51.362;12.472;2023-04-15T12:28:39;10.18;;;5.28;;
74267;SDS011;62638;51.362;12.472;2023-04-15T12:31:06;10.45;;;5.40;;
74267;SDS011;62638;51.362;12.472;2023-04-15T12:33:33;10.85;;;5.03;;
74267;SDS011;62638;51.362;12.472;2023-04-15T12:35:58;13.98;;;6.60;;
74267;SDS011;62638;51.362;12.472;2023-04-15T12:38:24;9.55;;;5.22;;
74267;SDS011;62638;51.362;12.472;2023-04-15T12:40:49;11.07;;;5.30;;
74267;SDS011;62638;51.362;12.472;2023-04-15T12:43:15;11.63;;;5.20;;
74267;SDS011;62638;51.362;12.472;2023-04-15T12:45:40;12.02;;;5.57;;
74267;SDS011;62638;51.362;12.472;2023-04-15T12:48:06;7.93;;;4.32;;
74267;SDS011;62638;51.362;12.472;2023-04-15T12:50:33;7.95;;;4.53;;
74267;SDS011;62638;51.362;12.472;2023-04-15T12:52:58;8.35;;;4.38;;
74267;SDS011;62638;51.362;12.472;2023-04-15T12:55:24;9.07;;;4.87;;
74267;SDS011;62638;51.362;12.472;2023-04-15T12:57:49;7.45;;;3.83;;
74267;SDS011;62638;51.362;12.472;2023-04-15T13:00:33;7.32;;;4.40;;
74267;SDS011;62638;51.362;12.472;2023-04-15T13:02:59;8.70;;;3.75;;
74267;SDS011;62638;51.362;12.472;2023-04-15T13:05:24;8.00;;;3.65;;
74267;SDS011;62638;51.362;12.472;2023-04-15T13:07:50;5.85;;;2.70;;
74267;SDS011;62638;51.362;12.472;2023-04-15T13:10:15;6.13;;;3.43;;
74267;SDS011;62638;51.362;12.472;2023-04-15T13:12:41;5.10;;;2.75;;
74267;SDS011;62638;51.362;12.472;2023-04-15T13:15:06;6.53;;;3.63;;
74267;SDS011;62638;51.362;12.472;2023-04-15T13:17:34;8.15;;;3.63;;
74267;SDS011;62638;51.362;12.472;2023-04-15T13:19:59;6.20;;;3.50;;
74267;SDS011;62638;51.362;12.472;2023-04-15T13:22:25;8.95;;;4.80;;
74267;SDS011;62638;51.362;12.472;2023-04-15T13:24:51;6.30;;;3.13;;
74267;SDS011;62638;51.362;12.472;2023-04-15T13:27:16;7.77;;;4.37;;
74267;SDS011;62638;51.362;12.472;2023-04-15T13:29:41;5.33;;;3.10;;
74267;SDS011;62638;51.362;12.472;2023-04-15T13:32:06;6.72;;;3.67;;
74267;SDS011;62638;51.362;12.472;2023-04-15T13:34:32;6.05;;;3.45;;
74267;SDS011;62638;51.362;12.472;2023-04-15T13:36:57;6.00;;;3.40;;
74267;SDS011;62638;51.362;12.472;2023-04-15T13:39:22;6.53;;;4.03;;
74267;SDS011;62638;51.362;12.472;2023-04-15T13:41:48;6.70;;;3.20;;
74267;SDS011;62638;51.362;12.472;2023-04-15T13:44:13;8.50;;;4.37;;
74267;SDS011;62638;51.362;12.472;2023-04-15T13:46:38;8.23;;;4.00;;
74267;SDS011;62638;51.362;12.472;2023-04-15T13:49:05;8.02;;;3.83;;
74267;SDS011;62638;51.362;12.472;2023-04-15T13:51:31;5.90;;;3.50;;
74267;SDS011;62638;51.362;12.472;2023-04-15T13:53:56;8.55;;;3.88;;
74267;SDS011;62638;51.362;12.472;2023-04-15T13:56:22;7.57;;;4.03;;
74267;SDS011;62638;51.362;12.472;2023-04-15T13:58:47;6.40;;;3.35;;
74267;SDS011;62638;51.362;12.472;2023-04-15T14:01:13;8.07;;;4.03;;
74267;SDS011;62638;51.362;12.472;2023-04-15T14:03:38;7.40;;;4.15;;
74267;SDS011;62638;51.362;12.472;2023-04-15T14:06:04;7.13;;;3.73;;
74267;SDS011;62638;51.362;12.472;2023-04-15T14:08:29;6.40;;;2.38;;
74267;SDS011;62638;51.362;12.472;2023-04-15T14:10:55;6.25;;;3.15;;
74267;SDS011;62638;51.362;12.472;2023-04-15T14:13:21;6.07;;;3.42;;
74267;SDS011;62638;51.362;12.472;2023-04-15T14:15:46;5.05;;;3.15;;
74267;SDS011;62638;51.362;12.472;2023-04-15T14:18:12;6.53;;;3.28;;
74267;SDS011;62638;51.362;12.472;2023-04-15T14:20:37;5.00;;;2.90;;
74267;SDS011;62638;51.362;12.472;2023-04-15T14:23:02;5.50;;;2.93;;
74267;SDS011;62638;51.362;12.472;2023-04-15T14:25:28;11.93;;;3.00;;
74267;SDS011;62638;51.362;12.472;2023-04-15T14:27:53;7.77;;;4.13;;
74267;SDS011;62638;51.362;12.472;2023-04-15T14:30:18;6.15;;;3.00;;
74267;SDS011;62638;51.362;12.472;2023-04-15T14:32:44;6.25;;;4.38;;
74267;SDS011;62638;51.362;12.472;2023-04-15T14:35:10;7.50;;;3.67;;